createdAt,value
2023-04-23T00:01:20.670Z,5.97
2023-04-23T00:03:50.162Z,6.12
2023-04-23T00:06:17.906Z,5.98
2023-04-23T00:08:45.064Z,5.78
2023-04-23T00:11:12.060Z,5.80
2023-04-23T00:13:40.840Z,5.91
2023-04-23T00:16:08.324Z,5.59
2023-04-23T00:18:35.034Z,5.47
2023-04-23T00:21:01.646Z,5.58
2023-04-23T00:23:29.141Z,5.42
2023-04-23T00:25:56.075Z,5.18
2023-04-23T00:28:22.709Z,5.12
2023-04-23T00:30:49.469Z,5.15
2023-04-23T00:33:16.201Z,4.92
2023-04-23T00:35:42.888Z,4.95
2023-04-23T00:38:09.640Z,4.82
2023-04-23T00:40:36.432Z,4.57
2023-04-23T00:43:03.190Z,4.70
2023-04-23T00:45:29.930Z,4.58
2023-04-23T00:47:56.678Z,4.45
2023-04-23T00:50:24.985Z,4.58
2023-04-23T00:52:53.563Z,4.32
2023-04-23T00:55:21.366Z,4.34
2023-04-23T00:57:50.553Z,4.35
2023-04-23T01:00:18.742Z,4.15
2023-04-23T01:02:47.694Z,4.26
2023-04-23T01:05:17.434Z,4.17
2023-04-23T01:07:45.491Z,3.99
2023-04-23T01:10:12.597Z,4.17
2023-04-23T01:12:39.767Z,3.95
2023-04-23T01:15:08.927Z,3.94
2023-04-23T01:17:35.760Z,3.98
2023-04-23T01:20:02.530Z,3.78
2023-04-23T01:22:29.201Z,3.87
2023-04-23T01:24:56.404Z,3.71
2023-04-23T01:27:25.024Z,3.51
2023-04-23T01:29:52.269Z,3.69
2023-04-23T01:32:19.613Z,3.58
2023-04-23T01:34:49.706Z,3.40
2023-04-23T01:37:17.524Z,3.59
2023-04-23T01:39:44.201Z,3.40
2023-04-23T01:42:11.198Z,3.33
2023-04-23T01:44:38.103Z,3.52
2023-04-23T01:47:06.962Z,3.24
2023-04-23T01:49:35.810Z,3.33
2023-04-23T01:52:02.546Z,3.32
2023-04-23T01:54:30.895Z,3.08
2023-04-23T01:56:59.010Z,3.19
2023-04-23T01:59:26.091Z,3.10
2023-04-23T02:01:52.794Z,2.90
2023-04-23T02:04:19.933Z,3.03
2023-04-23T02:06:49.779Z,2.94
2023-04-23T02:09:16.699Z,2.82
2023-04-23T02:11:45.186Z,2.95
2023-04-23T02:14:12.222Z,2.86
2023-04-23T02:16:39.531Z,2.74
2023-04-23T02:19:06.199Z,2.90
2023-04-23T02:21:32.978Z,2.76
2023-04-23T02:23:59.642Z,2.73
2023-04-23T02:26:28.966Z,2.88
2023-04-23T02:28:57.145Z,2.67
2023-04-23T02:31:24.037Z,2.55
2023-04-23T02:33:53.634Z,2.76
2023-04-23T02:36:20.491Z,2.68
2023-04-23T02:38:49.237Z,2.60
2023-04-23T02:41:15.949Z,2.81
2023-04-23T02:43:42.631Z,2.66
2023-04-23T02:46:09.993Z,2.54
2023-04-23T02:48:41.936Z,2.76
2023-04-23T02:51:12.013Z,2.67
2023-04-23T02:53:38.866Z,2.61
2023-04-23T02:56:05.733Z,2.84
2023-04-23T02:58:32.472Z,2.71
2023-04-23T03:01:01.024Z,2.64
2023-04-23T03:03:31.842Z,2.80
2023-04-23T03:06:00.657Z,2.64
2023-04-23T03:08:28.143Z,2.64
2023-04-23T03:10:55.162Z,2.83
2023-04-23T03:13:23.799Z,2.68
2023-04-23T03:15:51.118Z,2.57
2023-04-23T03:18:17.801Z,2.75
2023-04-23T03:20:44.595Z,2.65
2023-04-23T03:23:11.194Z,2.49
2023-04-23T03:25:39.412Z,2.65
2023-04-23T03:28:07.883Z,2.54
2023-04-23T03:30:34.651Z,2.42
2023-04-23T03:33:02.546Z,2.58
2023-04-23T03:35:29.311Z,2.53
2023-04-23T03:37:56.062Z,2.38
2023-04-23T03:40:23.205Z,2.51
2023-04-23T03:42:49.924Z,2.46
2023-04-23T03:45:19.664Z,2.30
2023-04-23T03:47:46.336Z,2.35
2023-04-23T03:50:13.509Z,2.43
2023-04-23T03:52:40.729Z,2.23
2023-04-23T03:55:08.592Z,2.18
2023-04-23T03:57:36.599Z,2.39
2023-04-23T04:00:04.518Z,2.22
2023-04-23T04:02:31.326Z,2.05
2023-04-23T04:04:58.258Z,2.24
2023-04-23T04:07:25.046Z,2.13
2023-04-23T04:09:51.660Z,1.99
2023-04-23T04:12:18.348Z,2.05
2023-04-23T04:14:45.946Z,2.21
2023-04-23T04:17:14.990Z,2.04
2023-04-23T04:19:42.930Z,1.99
2023-04-23T04:22:10.010Z,2.22
2023-04-23T04:24:38.323Z,2.11
2023-04-23T04:27:05.964Z,2.02
2023-04-23T04:29:33.472Z,2.10
2023-04-23T04:32:01.353Z,2.16
2023-04-23T04:34:28.302Z,2.04
2023-04-23T04:36:54.887Z,2.09
2023-04-23T04:39:21.472Z,2.29
2023-04-23T04:41:48.559Z,2.18
2023-04-23T04:44:16.495Z,2.12
2023-04-23T04:46:43.289Z,2.30
2023-04-23T04:49:12.652Z,2.30
2023-04-23T04:51:40.632Z,2.30
2023-04-23T04:54:07.988Z,2.49
2023-04-23T04:56:35.435Z,2.43
2023-04-23T04:59:02.647Z,2.32
2023-04-23T05:01:29.748Z,2.35
2023-04-23T05:03:57.159Z,2.56
2023-04-23T05:06:24.104Z,2.41
2023-04-23T05:08:51.072Z,2.40
2023-04-23T05:11:20.654Z,2.63
2023-04-23T05:13:48.080Z,2.58
2023-04-23T05:16:16.848Z,2.47
2023-04-23T05:18:44.966Z,2.56
2023-04-23T05:21:11.632Z,2.67
2023-04-23T05:23:39.781Z,2.54
2023-04-23T05:26:06.507Z,2.57
2023-04-23T05:28:33.162Z,2.62
2023-04-23T05:31:01.616Z,2.50
2023-04-23T05:33:33.546Z,2.50
2023-04-23T05:36:06.356Z,2.66
2023-04-23T05:38:33.327Z,2.61
2023-04-23T05:41:00.102Z,2.54
2023-04-23T05:43:26.763Z,2.70
2023-04-23T05:45:53.422Z,2.78
2023-04-23T05:48:22.021Z,2.72
2023-04-23T05:50:49.676Z,2.73
2023-04-23T05:53:16.628Z,2.81
2023-04-23T05:55:43.790Z,2.67
2023-04-23T05:58:10.500Z,2.84
2023-04-23T06:00:39.013Z,2.82
2023-04-23T06:03:06.293Z,2.77
2023-04-23T06:05:33.132Z,2.86
2023-04-23T06:07:59.797Z,2.98
2023-04-23T06:10:26.448Z,2.85
2023-04-23T06:12:55.418Z,2.97
2023-04-23T06:15:28.356Z,3.02
2023-04-23T06:17:55.058Z,2.84
2023-04-23T06:20:23.933Z,2.94
2023-04-23T06:22:50.521Z,3.01
2023-04-23T06:25:17.123Z,2.88
2023-04-23T06:27:43.800Z,2.91
2023-04-23T06:30:10.796Z,2.96
2023-04-23T06:32:37.672Z,2.81
2023-04-23T06:35:06.550Z,2.90
2023-04-23T06:37:33.512Z,3.04
2023-04-23T06:40:01.849Z,2.90
2023-04-23T06:42:28.561Z,3.07
2023-04-23T06:44:56.937Z,3.08
2023-04-23T06:47:23.589Z,2.93
2023-04-23T06:49:50.241Z,3.13
2023-04-23T06:52:18.423Z,3.11
2023-04-23T06:54:45.382Z,3.06
2023-04-23T06:57:12.098Z,3.30
2023-04-23T06:59:38.739Z,3.25
2023-04-23T07:02:05.368Z,3.21
2023-04-23T07:04:32.092Z,3.39
2023-04-23T07:06:58.968Z,3.24
2023-04-23T07:09:26.487Z,3.20
2023-04-23T07:11:53.161Z,3.45
2023-04-23T07:14:19.834Z,3.34
2023-04-23T07:16:46.606Z,3.31
2023-04-23T07:19:13.345Z,3.55
2023-04-23T07:21:40.495Z,3.45
2023-04-23T07:24:07.503Z,3.40
2023-04-23T07:26:35.287Z,3.67
2023-04-23T07:29:03.068Z,3.65
2023-04-23T07:31:29.761Z,3.69
2023-04-23T07:33:56.772Z,3.92
2023-04-23T07:36:23.502Z,3.83
2023-04-23T07:38:51.144Z,3.88
2023-04-23T07:41:18.454Z,4.04
2023-04-23T07:43:45.356Z,3.95
2023-04-23T07:46:12.587Z,3.94
2023-04-23T07:48:39.283Z,4.09
2023-04-23T07:51:08.212Z,4.00
2023-04-23T07:53:37.353Z,4.10
2023-04-23T07:56:04.006Z,4.04
2023-04-23T07:58:32.062Z,3.91
2023-04-23T08:00:58.783Z,4.07
2023-04-23T08:03:25.588Z,4.08
2023-04-23T08:05:52.413Z,3.95
2023-04-23T08:08:19.076Z,4.11
2023-04-23T08:10:46.449Z,4.00
2023-04-23T08:13:13.063Z,3.83
2023-04-23T08:15:40.062Z,3.99
2023-04-23T08:18:06.851Z,3.95
2023-04-23T08:20:34.501Z,3.83
2023-04-23T08:23:01.538Z,3.98
2023-04-23T08:25:28.174Z,3.89
2023-04-23T08:27:54.813Z,3.76
2023-04-23T08:30:21.624Z,3.95
2023-04-23T08:32:51.551Z,3.85
2023-04-23T08:35:19.889Z,3.74
2023-04-23T08:37:48.508Z,3.95
2023-04-23T08:40:15.719Z,3.86
2023-04-23T08:43:02.410Z,3.89
2023-04-23T08:45:30.693Z,3.97
2023-04-23T08:48:02.710Z,3.78
2023-04-23T08:50:31.003Z,3.91
2023-04-23T08:53:00.763Z,4.02
2023-04-23T08:55:27.684Z,3.84
2023-04-23T08:57:54.405Z,3.98
2023-04-23T09:00:23.376Z,4.03
2023-04-23T09:02:50.669Z,3.91
2023-04-23T09:05:19.637Z,4.06
2023-04-23T09:07:46.264Z,4.03
2023-04-23T09:10:16.894Z,3.91
2023-04-23T09:12:47.297Z,4.11
2023-04-23T09:15:14.035Z,3.97
2023-04-23T09:17:43.996Z,4.01
2023-04-23T09:20:12.394Z,4.20
2023-04-23T09:22:39.053Z,4.04
2023-04-23T09:25:07.041Z,4.07
2023-04-23T09:27:33.697Z,4.09
2023-04-23T09:30:07.463Z,3.87
2023-04-23T09:32:35.318Z,4.05
2023-04-23T09:35:10.199Z,3.96
2023-04-23T09:37:38.823Z,3.97
2023-04-23T09:40:09.527Z,4.18
2023-04-23T09:42:37.220Z,3.99
2023-04-23T09:45:09.081Z,4.09
2023-04-23T09:47:39.060Z,4.05
2023-04-23T09:50:07.285Z,3.94
2023-04-23T09:52:34.496Z,4.12
2023-04-23T09:55:03.000Z,4.04
2023-04-23T09:57:29.684Z,3.97
2023-04-23T10:00:07.331Z,4.17
2023-04-23T10:02:45.989Z,4.07
2023-04-23T10:05:24.912Z,3.97
2023-04-23T10:07:56.505Z,4.02
2023-04-23T10:10:23.788Z,3.79
2023-04-23T10:12:55.590Z,3.82
2023-04-23T10:15:25.451Z,3.91
2023-04-23T10:17:52.708Z,3.75
2023-04-23T10:20:21.117Z,3.86
2023-04-23T10:22:48.298Z,3.86
2023-04-23T10:25:15.843Z,3.68
2023-04-23T10:27:52.030Z,3.76
2023-04-23T10:30:20.727Z,3.76
2023-04-23T10:32:49.383Z,3.65
2023-04-23T10:35:17.980Z,3.83
2023-04-23T10:37:48.630Z,3.73
2023-04-23T10:40:22.007Z,3.58
2023-04-23T10:42:51.155Z,3.76
2023-04-23T10:45:25.258Z,3.61
2023-04-23T10:47:56.041Z,3.54
2023-04-23T10:50:30.772Z,3.69
2023-04-23T10:52:58.506Z,3.44
2023-04-23T10:55:28.748Z,3.44
2023-04-23T10:58:07.546Z,3.62
2023-04-23T11:00:45.114Z,3.41
2023-04-23T11:03:43.234Z,3.47
2023-04-23T11:06:19.821Z,3.46
2023-04-23T11:08:54.239Z,3.37
2023-04-23T11:11:41.475Z,3.61
2023-04-23T11:14:16.303Z,3.45
2023-04-23T11:16:43.183Z,3.41
2023-04-23T11:19:17.285Z,3.64
2023-04-23T11:22:14.108Z,3.52
2023-04-23T11:24:43.070Z,3.65
2023-04-23T11:27:15.059Z,3.65
2023-04-23T11:29:45.148Z,3.46
2023-04-23T11:32:14.259Z,3.68
2023-04-23T11:34:43.837Z,3.68
2023-04-23T11:37:17.247Z,3.55
2023-04-23T11:39:47.108Z,3.72
2023-04-23T11:42:14.999Z,3.72
2023-04-23T11:44:43.053Z,3.71
2023-04-23T11:47:14.356Z,3.88
2023-04-23T11:49:45.048Z,3.63
2023-04-23T11:52:12.904Z,3.76
2023-04-23T11:54:44.051Z,3.68
2023-04-23T11:57:10.819Z,3.52
2023-04-23T11:59:37.651Z,3.65
2023-04-23T12:02:04.366Z,3.62
2023-04-23T12:04:32.141Z,3.55
2023-04-23T12:06:59.578Z,3.72
2023-04-23T12:09:29.826Z,3.55
2023-04-23T12:11:58.570Z,3.52
2023-04-23T12:14:30.183Z,3.61
2023-04-23T12:16:57.765Z,3.46
2023-04-23T12:19:29.498Z,3.55
2023-04-23T12:21:58.510Z,3.51
2023-04-23T12:24:32.222Z,3.32
2023-04-23T12:27:02.864Z,3.50
2023-04-23T12:29:30.924Z,3.42
2023-04-23T12:32:00.845Z,3.31
2023-04-23T12:34:27.593Z,3.47
2023-04-23T12:36:56.852Z,3.36
2023-04-23T12:39:32.740Z,3.33
2023-04-23T12:42:11.826Z,3.59
2023-04-23T12:44:39.024Z,3.50
2023-04-23T12:47:13.064Z,3.55
2023-04-23T12:49:40.853Z,3.68
2023-04-23T12:52:08.854Z,3.58
2023-04-23T12:54:40.526Z,3.68
2023-04-23T12:57:09.210Z,3.71
2023-04-23T12:59:35.828Z,3.53
2023-04-23T13:02:04.051Z,3.69
2023-04-23T13:04:32.676Z,3.63
2023-04-23T13:06:59.527Z,3.52
2023-04-23T13:09:27.945Z,3.74
2023-04-23T13:11:55.398Z,3.70
2023-04-23T13:14:23.835Z,3.65
2023-04-23T13:16:51.030Z,3.91
2023-04-23T13:19:19.346Z,3.87
2023-04-23T13:21:46.004Z,3.85
2023-04-23T13:24:14.497Z,4.10
2023-04-23T13:26:42.673Z,4.06
2023-04-23T13:29:09.330Z,4.09
2023-04-23T13:31:35.981Z,4.27
2023-04-23T13:34:03.257Z,4.09
2023-04-23T13:36:30.168Z,4.15
2023-04-23T13:38:58.737Z,4.13
2023-04-23T13:41:25.482Z,3.90
2023-04-23T13:43:52.783Z,4.04
2023-04-23T13:46:21.593Z,4.07
2023-04-23T13:48:48.253Z,3.86
2023-04-23T13:51:33.218Z,4.01
2023-04-23T13:54:01.845Z,3.92
2023-04-23T13:56:32.051Z,3.90
2023-04-23T13:59:18.922Z,4.11
2023-04-23T14:01:49.868Z,3.94
2023-04-23T14:04:18.149Z,3.90
2023-04-23T14:06:45.536Z,4.11
2023-04-23T14:09:12.181Z,3.94
2023-04-23T14:11:40.575Z,3.94
2023-04-23T14:14:07.958Z,4.02
2023-04-23T14:16:35.615Z,3.83
2023-04-23T14:19:02.378Z,3.93
2023-04-23T14:21:30.642Z,3.88
2023-04-23T14:24:09.753Z,3.66
2023-04-23T14:29:11.385Z,3.74
2023-04-23T14:31:38.522Z,3.64
2023-04-23T14:34:06.397Z,3.85
2023-04-23T14:36:33.094Z,3.74
2023-04-23T14:39:04.863Z,3.68
2023-04-23T14:41:32.830Z,3.86
2023-04-23T14:44:04.122Z,3.63
2023-04-23T14:46:31.035Z,3.64
2023-04-23T14:48:57.871Z,3.79
2023-04-23T14:51:26.271Z,3.60
2023-04-23T14:53:54.718Z,3.62
2023-04-23T14:56:25.617Z,3.78
2023-04-23T14:58:52.213Z,3.58
2023-04-23T15:01:18.929Z,3.64
2023-04-23T15:03:46.540Z,3.58
2023-04-23T15:06:13.492Z,3.44
2023-04-23T15:08:40.249Z,3.54
2023-04-23T15:11:13.110Z,3.63
2023-04-23T15:14:08.697Z,3.46
2023-04-23T15:19:09.081Z,3.40
2023-04-23T15:21:36.633Z,3.29
2023-04-23T15:24:05.034Z,3.43
2023-04-23T15:26:33.670Z,3.40
2023-04-23T15:29:00.625Z,3.30
2023-04-23T15:31:27.318Z,3.47
2023-04-23T15:33:53.925Z,3.34
2023-04-23T15:36:20.718Z,3.30
2023-04-23T15:38:48.976Z,3.46
2023-04-23T15:41:15.825Z,3.34
2023-04-23T15:43:42.459Z,3.35
2023-04-23T15:46:09.183Z,3.50
2023-04-23T15:48:35.832Z,3.31
2023-04-23T15:51:04.220Z,3.26
2023-04-23T15:53:31.395Z,3.43
2023-04-23T15:55:58.916Z,3.23
2023-04-23T15:58:25.999Z,3.27
2023-04-23T16:00:52.754Z,3.30
2023-04-23T16:03:19.650Z,3.12
2023-04-23T16:05:49.805Z,3.21
2023-04-23T16:08:17.408Z,3.26
2023-04-23T16:10:44.167Z,3.07
2023-04-23T16:13:10.938Z,3.18
2023-04-23T16:15:37.674Z,3.22
2023-04-23T16:18:06.132Z,3.00
2023-04-23T16:20:33.418Z,3.11
2023-04-23T16:23:01.702Z,3.16
2023-04-23T16:25:28.420Z,2.98
2023-04-23T16:27:57.867Z,3.15
2023-04-23T16:30:24.766Z,3.03
2023-04-23T16:32:51.638Z,2.89
2023-04-23T16:35:18.400Z,3.08
2023-04-23T16:37:45.446Z,2.98
2023-04-23T16:40:15.260Z,2.85
2023-04-23T16:42:43.406Z,3.00
2023-04-23T16:45:10.540Z,2.98
2023-04-23T16:47:37.881Z,2.85
2023-04-23T16:50:04.752Z,3.00
2023-04-23T16:52:32.960Z,2.89
2023-04-23T16:55:00.250Z,2.80
2023-04-23T16:57:29.121Z,2.94
2023-04-23T16:59:56.433Z,2.77
2023-04-23T17:02:23.181Z,2.76
2023-04-23T17:04:50.007Z,2.92
2023-04-23T17:07:17.154Z,2.76
2023-04-23T17:09:45.556Z,2.69
2023-04-23T17:12:12.186Z,2.88
2023-04-23T17:14:38.849Z,2.71
2023-04-23T17:17:05.608Z,2.68
2023-04-23T17:19:32.259Z,2.82
2023-04-23T17:21:59.029Z,2.64
2023-04-23T17:24:27.346Z,2.64
2023-04-23T17:26:53.961Z,2.73
2023-04-23T17:29:20.656Z,2.57
2023-04-23T17:31:47.377Z,2.60
2023-04-23T17:34:14.057Z,2.66
2023-04-23T17:36:40.650Z,2.49
2023-04-23T17:39:09.115Z,2.55
2023-04-23T17:41:35.813Z,2.58
2023-04-23T17:44:02.504Z,2.39
2023-04-23T17:46:29.230Z,2.45
2023-04-23T17:48:56.158Z,2.38
2023-04-23T17:51:22.776Z,2.27
2023-04-23T17:53:50.590Z,2.34
2023-04-23T17:56:17.709Z,2.37
2023-04-23T17:58:44.435Z,2.24
2023-04-23T18:01:11.595Z,2.32
2023-04-23T18:03:39.870Z,2.33
2023-04-23T18:06:08.485Z,2.23
2023-04-23T18:08:37.301Z,2.31
2023-04-23T18:11:07.128Z,2.24
2023-04-23T18:13:34.103Z,2.10
2023-04-23T18:16:01.867Z,2.24
2023-04-23T18:18:28.613Z,2.17
2023-04-23T18:20:55.319Z,2.10
2023-04-23T18:23:22.326Z,2.24
2023-04-23T18:25:49.124Z,2.21
2023-04-23T18:28:16.128Z,2.09
2023-04-23T18:30:42.826Z,2.16
2023-04-23T18:33:15.689Z,2.18
2023-04-23T18:35:43.479Z,2.03
2023-04-23T18:38:11.544Z,2.17
2023-04-23T18:40:39.580Z,2.10
2023-04-23T18:43:06.569Z,1.95
2023-04-23T18:45:34.536Z,2.01
2023-04-23T18:48:28.812Z,2.01
2023-04-23T18:50:57.871Z,1.88
2023-04-23T18:53:24.595Z,2.00
2023-04-23T18:55:53.143Z,1.92
2023-04-23T18:58:19.815Z,1.80
2023-04-23T19:00:46.757Z,1.77
2023-04-23T19:03:25.941Z,1.94
2023-04-23T19:05:53.795Z,1.72
2023-04-23T19:08:20.678Z,1.69
2023-04-23T19:10:47.313Z,1.85
2023-04-23T19:13:15.225Z,1.69
2023-04-23T19:15:41.886Z,1.64
2023-04-23T19:18:08.671Z,1.79
2023-04-23T19:20:36.082Z,1.62
2023-04-23T19:23:04.950Z,1.54
2023-04-23T19:25:31.653Z,1.68
2023-04-23T19:27:59.653Z,1.60
2023-04-23T19:30:26.297Z,1.54
2023-04-23T19:32:52.952Z,1.64
2023-04-23T19:35:19.601Z,1.61
2023-04-23T19:37:47.213Z,1.51
2023-04-23T19:40:16.003Z,1.61
2023-04-23T19:42:43.384Z,1.59
2023-04-23T19:45:10.583Z,1.50
2023-04-23T19:47:40.312Z,1.55
2023-04-23T19:50:07.796Z,1.56
2023-04-23T19:52:34.766Z,1.38
2023-04-23T19:55:02.021Z,1.37
2023-04-23T19:57:30.636Z,1.53
2023-04-23T19:59:57.226Z,1.36
2023-04-23T20:02:23.956Z,1.34
2023-04-23T20:04:50.730Z,1.51
2023-04-23T20:07:17.392Z,1.39
2023-04-23T20:09:44.346Z,1.28
2023-04-23T20:12:13.516Z,1.44
2023-04-23T20:14:41.293Z,1.39
2023-04-23T20:17:08.071Z,1.31
2023-04-23T20:19:34.818Z,1.44
2023-04-23T20:22:02.518Z,1.41
2023-04-23T20:24:29.304Z,1.30
2023-04-23T20:26:56.601Z,1.35
2023-04-23T20:29:24.718Z,1.49
2023-04-23T20:31:51.319Z,1.34
2023-04-23T20:34:18.087Z,1.26
2023-04-23T20:36:47.156Z,1.44
2023-04-23T20:39:14.740Z,1.37
2023-04-23T20:41:41.521Z,1.31
2023-04-23T20:44:09.114Z,1.38
2023-04-23T20:46:36.923Z,1.37
2023-04-23T20:49:04.326Z,1.28
2023-04-23T20:51:34.778Z,1.35
2023-04-23T20:54:02.675Z,1.37
2023-04-23T20:56:31.159Z,1.25
2023-04-23T20:58:59.130Z,1.26
2023-04-23T21:01:26.219Z,1.37
2023-04-23T21:03:53.777Z,1.18
2023-04-23T21:06:21.695Z,1.20
2023-04-23T21:08:48.693Z,1.32
2023-04-23T21:11:19.387Z,1.21
2023-04-23T21:13:48.523Z,1.17
2023-04-23T21:16:15.527Z,1.24
2023-04-23T21:18:44.878Z,1.25
2023-04-23T21:21:11.518Z,1.14
2023-04-23T21:23:38.141Z,1.14
2023-04-23T21:26:06.062Z,1.25
2023-04-23T21:28:32.764Z,1.13
2023-04-23T21:31:08.868Z,1.15
2023-04-23T21:33:35.600Z,1.28
2023-04-23T21:36:02.208Z,1.17
2023-04-23T21:38:28.820Z,1.10
2023-04-23T21:40:56.939Z,1.23
2023-04-23T21:43:24.450Z,1.17
2023-04-23T21:45:52.250Z,1.12
2023-04-23T21:48:18.831Z,1.15
2023-04-23T21:50:45.511Z,1.23
2023-04-23T21:53:13.172Z,1.12
2023-04-23T21:55:40.451Z,1.15
2023-04-23T21:58:17.197Z,1.29
2023-04-23T22:00:56.550Z,1.11
2023-04-23T22:03:35.951Z,1.11
2023-04-23T22:06:05.895Z,1.23
2023-04-23T22:08:33.599Z,1.09
2023-04-23T22:11:00.651Z,1.09
2023-04-23T22:13:27.467Z,1.25
2023-04-23T22:15:54.063Z,1.14
2023-04-23T22:18:20.759Z,1.10
2023-04-23T22:20:50.801Z,1.16
2023-04-23T22:23:17.384Z,1.19
2023-04-23T22:25:44.847Z,1.10
2023-04-23T22:28:12.100Z,1.11
2023-04-23T22:30:40.054Z,1.22
2023-04-23T22:33:06.656Z,1.08
2023-04-23T22:35:33.437Z,1.04
2023-04-23T22:38:00.393Z,1.17
2023-04-23T22:40:27.121Z,1.15
2023-04-23T22:42:54.925Z,1.14
2023-04-23T22:45:21.578Z,1.13
2023-04-23T22:47:49.435Z,1.17
2023-04-23T22:50:17.629Z,1.03
2023-04-23T22:52:44.573Z,1.07
2023-04-23T22:55:11.784Z,1.15
2023-04-23T22:57:38.561Z,1.00
2023-04-23T23:00:07.741Z,0.97
2023-04-23T23:02:34.488Z,1.15
2023-04-23T23:05:02.619Z,1.11
2023-04-23T23:07:29.216Z,1.02
2023-04-23T23:09:58.002Z,1.03
2023-04-23T23:12:24.665Z,1.18
2023-04-23T23:14:52.573Z,1.03
2023-04-23T23:17:19.209Z,0.95
2023-04-23T23:19:45.812Z,1.14
2023-04-23T23:22:12.497Z,1.07
2023-04-23T23:24:39.112Z,0.94
2023-04-23T23:27:06.017Z,1.03
2023-04-23T23:29:32.625Z,1.16
2023-04-23T23:31:59.945Z,0.98
2023-04-23T23:34:26.908Z,0.97
2023-04-23T23:36:53.625Z,1.16
2023-04-23T23:39:20.540Z,1.12
2023-04-23T23:41:48.673Z,1.07
2023-04-23T23:44:17.794Z,1.13
2023-04-23T23:46:44.487Z,1.11
2023-04-23T23:49:11.392Z,0.99
2023-04-23T23:51:38.166Z,1.00
2023-04-23T23:54:04.825Z,1.17
2023-04-23T23:56:31.810Z,1.02
2023-04-23T23:58:58.460Z,0.97
